sensor_id;sensor_type;location;lat;lon;timestamp;P1;durP1;ratioP1;P2;durP2;ratioP2
70829;SDS011;58451;51.550;7.208;2023-08-06T00:00:27;12.00;;;6.30;;
70829;SDS011;58451;51.550;7.208;2023-08-06T00:01:59;11.10;;;6.10;;
70829;SDS011;58451;51.550;7.208;2023-08-06T00:03:31;11.60;;;5.90;;
70829;SDS011;58451;51.550;7.208;2023-08-06T00:05:03;11.20;;;6.20;;
70829;SDS011;58451;51.550;7.208;2023-08-06T00:06:35;11.70;;;6.10;;
70829;SDS011;58451;51.550;7.208;2023-08-06T00:08:07;11.20;;;5.70;;
70829;SDS011;58451;51.550;7.208;2023-08-06T00:09:38;10.30;;;5.90;;
70829;SDS011;58451;51.550;7.208;2023-08-06T00:11:10;11.20;;;5.80;;
70829;SDS011;58451;51.550;7.208;2023-08-06T00:12:43;9.70;;;5.50;;
70829;SDS011;58451;51.550;7.208;2023-08-06T00:14:15;12.00;;;6.90;;
70829;SDS011;58451;51.550;7.208;2023-08-06T00:15:48;13.50;;;6.70;;
70829;SDS011;58451;51.550;7.208;2023-08-06T00:17:20;11.90;;;6.00;;
70829;SDS011;58451;51.550;7.208;2023-08-06T00:18:52;11.40;;;6.60;;
70829;SDS011;58451;51.550;7.208;2023-08-06T00:20:24;12.40;;;6.40;;
70829;SDS011;58451;51.550;7.208;2023-08-06T00:21:56;15.30;;;6.40;;
70829;SDS011;58451;51.550;7.208;2023-08-06T00:23:28;10.80;;;6.30;;
70829;SDS011;58451;51.550;7.208;2023-08-06T00:24:59;11.50;;;6.00;;
70829;SDS011;58451;51.550;7.208;2023-08-06T00:26:31;11.90;;;6.30;;
70829;SDS011;58451;51.550;7.208;2023-08-06T00:28:03;10.20;;;5.70;;
70829;SDS011;58451;51.550;7.208;2023-08-06T00:29:35;12.60;;;6.00;;
70829;SDS011;58451;51.550;7.208;2023-08-06T00:31:07;13.30;;;6.20;;
70829;SDS011;58451;51.550;7.208;2023-08-06T00:32:39;8.90;;;5.20;;
70829;SDS011;58451;51.550;7.208;2023-08-06T00:34:11;11.00;;;5.90;;
70829;SDS011;58451;51.550;7.208;2023-08-06T00:35:43;11.60;;;6.20;;
70829;SDS011;58451;51.550;7.208;2023-08-06T00:37:18;11.00;;;4.80;;
70829;SDS011;58451;51.550;7.208;2023-08-06T00:38:50;9.80;;;5.30;;
70829;SDS011;58451;51.550;7.208;2023-08-06T00:40:22;10.70;;;5.80;;
70829;SDS011;58451;51.550;7.208;2023-08-06T00:41:54;10.70;;;5.80;;
70829;SDS011;58451;51.550;7.208;2023-08-06T00:43:26;9.50;;;5.20;;
70829;SDS011;58451;51.550;7.208;2023-08-06T00:44:57;10.70;;;5.60;;
70829;SDS011;58451;51.550;7.208;2023-08-06T00:46:30;9.30;;;5.10;;
70829;SDS011;58451;51.550;7.208;2023-08-06T00:48:05;11.40;;;5.80;;
70829;SDS011;58451;51.550;7.208;2023-08-06T00:49:38;10.50;;;5.90;;
70829;SDS011;58451;51.550;7.208;2023-08-06T00:51:11;10.40;;;5.60;;
70829;SDS011;58451;51.550;7.208;2023-08-06T00:52:43;9.70;;;5.50;;
70829;SDS011;58451;51.550;7.208;2023-08-06T00:54:15;10.80;;;5.40;;
70829;SDS011;58451;51.550;7.208;2023-08-06T00:55:48;11.40;;;6.00;;
70829;SDS011;58451;51.550;7.208;2023-08-06T00:57:21;11.00;;;5.50;;
70829;SDS011;58451;51.550;7.208;2023-08-06T00:58:56;13.80;;;6.40;;
70829;SDS011;58451;51.550;7.208;2023-08-06T01:00:28;12.50;;;5.80;;
70829;SDS011;58451;51.550;7.208;2023-08-06T01:02:01;10.80;;;5.90;;
70829;SDS011;58451;51.550;7.208;2023-08-06T01:03:33;10.70;;;5.40;;
70829;SDS011;58451;51.550;7.208;2023-08-06T01:05:05;10.80;;;5.40;;
70829;SDS011;58451;51.550;7.208;2023-08-06T01:06:59;10.10;;;5.50;;
70829;SDS011;58451;51.550;7.208;2023-08-06T01:09:01;9.30;;;5.10;;
70829;SDS011;58451;51.550;7.208;2023-08-06T01:27:49;8.70;;;4.00;;
70829;SDS011;58451;51.550;7.208;2023-08-06T01:29:40;8.20;;;4.10;;
70829;SDS011;58451;51.550;7.208;2023-08-06T01:31:22;8.00;;;3.60;;
70829;SDS011;58451;51.550;7.208;2023-08-06T01:33:00;7.90;;;4.00;;
70829;SDS011;58451;51.550;7.208;2023-08-06T01:34:39;8.10;;;3.80;;
70829;SDS011;58451;51.550;7.208;2023-08-06T01:36:16;10.00;;;4.30;;
70829;SDS011;58451;51.550;7.208;2023-08-06T01:37:50;9.50;;;4.30;;
70829;SDS011;58451;51.550;7.208;2023-08-06T01:39:22;8.10;;;4.00;;
70829;SDS011;58451;51.550;7.208;2023-08-06T01:40:54;7.60;;;4.00;;
70829;SDS011;58451;51.550;7.208;2023-08-06T01:42:26;10.10;;;4.40;;
70829;SDS011;58451;51.550;7.208;2023-08-06T01:43:58;8.00;;;4.30;;
70829;SDS011;58451;51.550;7.208;2023-08-06T01:45:30;9.50;;;4.20;;
70829;SDS011;58451;51.550;7.208;2023-08-06T01:47:01;9.30;;;4.40;;
70829;SDS011;58451;51.550;7.208;2023-08-06T01:48:33;9.30;;;4.30;;
70829;SDS011;58451;51.550;7.208;2023-08-06T01:50:06;7.80;;;4.20;;
70829;SDS011;58451;51.550;7.208;2023-08-06T01:51:38;8.20;;;4.60;;
70829;SDS011;58451;51.550;7.208;2023-08-06T01:53:10;8.60;;;4.10;;
70829;SDS011;58451;51.550;7.208;2023-08-06T01:54:41;8.30;;;4.50;;
70829;SDS011;58451;51.550;7.208;2023-08-06T01:56:14;9.20;;;4.60;;
70829;SDS011;58451;51.550;7.208;2023-08-06T01:57:46;10.90;;;4.50;;
70829;SDS011;58451;51.550;7.208;2023-08-06T01:59:18;10.60;;;4.40;;
70829;SDS011;58451;51.550;7.208;2023-08-06T02:00:50;8.60;;;4.20;;
70829;SDS011;58451;51.550;7.208;2023-08-06T02:02:22;10.40;;;4.10;;
70829;SDS011;58451;51.550;7.208;2023-08-06T02:03:54;8.10;;;4.20;;
70829;SDS011;58451;51.550;7.208;2023-08-06T02:05:26;8.00;;;4.30;;
70829;SDS011;58451;51.550;7.208;2023-08-06T02:06:58;10.20;;;4.20;;
70829;SDS011;58451;51.550;7.208;2023-08-06T02:08:29;10.50;;;4.00;;
70829;SDS011;58451;51.550;7.208;2023-08-06T02:10:01;9.00;;;3.70;;
70829;SDS011;58451;51.550;7.208;2023-08-06T02:11:33;8.70;;;4.60;;
70829;SDS011;58451;51.550;7.208;2023-08-06T02:13:05;9.50;;;3.80;;
70829;SDS011;58451;51.550;7.208;2023-08-06T02:14:37;8.70;;;3.60;;
70829;SDS011;58451;51.550;7.208;2023-08-06T02:16:10;8.40;;;4.10;;
70829;SDS011;58451;51.550;7.208;2023-08-06T02:17:41;8.50;;;3.60;;
70829;SDS011;58451;51.550;7.208;2023-08-06T02:19:13;8.30;;;3.80;;
70829;SDS011;58451;51.550;7.208;2023-08-06T02:20:56;8.60;;;3.70;;
70829;SDS011;58451;51.550;7.208;2023-08-06T02:22:33;9.10;;;4.10;;
70829;SDS011;58451;51.550;7.208;2023-08-06T02:24:05;9.40;;;3.80;;
70829;SDS011;58451;51.550;7.208;2023-08-06T02:25:36;7.80;;;3.40;;
70829;SDS011;58451;51.550;7.208;2023-08-06T02:27:08;8.30;;;3.40;;
70829;SDS011;58451;51.550;7.208;2023-08-06T02:28:40;7.90;;;3.20;;
70829;SDS011;58451;51.550;7.208;2023-08-06T02:30:12;7.50;;;3.60;;
70829;SDS011;58451;51.550;7.208;2023-08-06T02:31:44;8.40;;;3.20;;
70829;SDS011;58451;51.550;7.208;2023-08-06T02:33:16;8.50;;;4.10;;
70829;SDS011;58451;51.550;7.208;2023-08-06T02:34:48;7.00;;;3.20;;
70829;SDS011;58451;51.550;7.208;2023-08-06T02:36:19;7.70;;;3.40;;
70829;SDS011;58451;51.550;7.208;2023-08-06T02:37:51;7.90;;;3.70;;
70829;SDS011;58451;51.550;7.208;2023-08-06T02:39:23;8.00;;;3.50;;
70829;SDS011;58451;51.550;7.208;2023-08-06T02:40:55;7.50;;;3.10;;
70829;SDS011;58451;51.550;7.208;2023-08-06T02:42:27;7.20;;;3.00;;
70829;SDS011;58451;51.550;7.208;2023-08-06T02:43:59;7.10;;;3.30;;
70829;SDS011;58451;51.550;7.208;2023-08-06T02:45:31;7.20;;;3.10;;
70829;SDS011;58451;51.550;7.208;2023-08-06T02:47:04;6.80;;;2.60;;
70829;SDS011;58451;51.550;7.208;2023-08-06T02:48:36;7.80;;;3.10;;
70829;SDS011;58451;51.550;7.208;2023-08-06T02:50:09;6.30;;;2.80;;
70829;SDS011;58451;51.550;7.208;2023-08-06T02:51:41;6.10;;;2.80;;
70829;SDS011;58451;51.550;7.208;2023-08-06T02:53:13;7.70;;;3.00;;
70829;SDS011;58451;51.550;7.208;2023-08-06T02:54:44;7.10;;;3.10;;
70829;SDS011;58451;51.550;7.208;2023-08-06T02:56:17;8.20;;;2.70;;
70829;SDS011;58451;51.550;7.208;2023-08-06T02:58:07;6.90;;;2.90;;
70829;SDS011;58451;51.550;7.208;2023-08-06T02:59:41;7.50;;;3.10;;
70829;SDS011;58451;51.550;7.208;2023-08-06T03:01:25;7.70;;;3.00;;
70829;SDS011;58451;51.550;7.208;2023-08-06T03:03:01;8.40;;;3.30;;
70829;SDS011;58451;51.550;7.208;2023-08-06T03:04:41;7.40;;;3.00;;
70829;SDS011;58451;51.550;7.208;2023-08-06T03:06:14;7.80;;;3.10;;
70829;SDS011;58451;51.550;7.208;2023-08-06T03:07:49;8.30;;;3.10;;
70829;SDS011;58451;51.550;7.208;2023-08-06T03:09:27;6.60;;;3.30;;
70829;SDS011;58451;51.550;7.208;2023-08-06T03:10:58;6.20;;;3.00;;
70829;SDS011;58451;51.550;7.208;2023-08-06T03:12:31;7.30;;;3.20;;
70829;SDS011;58451;51.550;7.208;2023-08-06T03:14:03;6.70;;;3.40;;
70829;SDS011;58451;51.550;7.208;2023-08-06T03:15:35;10.20;;;3.90;;
70829;SDS011;58451;51.550;7.208;2023-08-06T03:17:07;7.20;;;3.10;;
70829;SDS011;58451;51.550;7.208;2023-08-06T03:18:39;7.70;;;3.20;;
70829;SDS011;58451;51.550;7.208;2023-08-06T03:20:11;8.30;;;3.30;;
70829;SDS011;58451;51.550;7.208;2023-08-06T03:21:43;7.10;;;3.10;;
70829;SDS011;58451;51.550;7.208;2023-08-06T03:23:17;6.40;;;2.90;;
70829;SDS011;58451;51.550;7.208;2023-08-06T03:24:52;9.00;;;3.20;;
70829;SDS011;58451;51.550;7.208;2023-08-06T03:26:25;7.40;;;3.10;;
70829;SDS011;58451;51.550;7.208;2023-08-06T03:27:57;6.40;;;2.90;;
70829;SDS011;58451;51.550;7.208;2023-08-06T03:29:29;8.80;;;3.20;;
70829;SDS011;58451;51.550;7.208;2023-08-06T03:31:04;6.90;;;3.00;;
70829;SDS011;58451;51.550;7.208;2023-08-06T03:32:42;7.60;;;3.20;;
70829;SDS011;58451;51.550;7.208;2023-08-06T03:34:14;6.80;;;3.20;;
70829;SDS011;58451;51.550;7.208;2023-08-06T03:35:47;7.50;;;3.70;;
70829;SDS011;58451;51.550;7.208;2023-08-06T03:37:19;7.60;;;3.40;;
70829;SDS011;58451;51.550;7.208;2023-08-06T03:38:50;7.90;;;3.40;;
70829;SDS011;58451;51.550;7.208;2023-08-06T03:40:22;9.30;;;4.10;;
70829;SDS011;58451;51.550;7.208;2023-08-06T03:41:54;9.40;;;3.40;;
70829;SDS011;58451;51.550;7.208;2023-08-06T03:43:26;9.10;;;3.60;;
70829;SDS011;58451;51.550;7.208;2023-08-06T03:44:58;9.20;;;3.40;;
70829;SDS011;58451;51.550;7.208;2023-08-06T03:46:30;10.70;;;3.60;;
70829;SDS011;58451;51.550;7.208;2023-08-06T03:48:07;7.90;;;3.60;;
70829;SDS011;58451;51.550;7.208;2023-08-06T03:49:39;9.50;;;3.80;;
70829;SDS011;58451;51.550;7.208;2023-08-06T03:51:11;8.80;;;3.50;;
70829;SDS011;58451;51.550;7.208;2023-08-06T03:52:43;8.20;;;3.40;;
70829;SDS011;58451;51.550;7.208;2023-08-06T03:54:15;8.40;;;3.70;;
70829;SDS011;58451;51.550;7.208;2023-08-06T03:55:47;8.30;;;4.00;;
70829;SDS011;58451;51.550;7.208;2023-08-06T03:57:19;8.50;;;3.80;;
70829;SDS011;58451;51.550;7.208;2023-08-06T03:58:51;8.80;;;4.00;;
70829;SDS011;58451;51.550;7.208;2023-08-06T04:00:22;8.70;;;3.80;;
70829;SDS011;58451;51.550;7.208;2023-08-06T04:01:55;9.40;;;4.00;;
70829;SDS011;58451;51.550;7.208;2023-08-06T04:03:27;9.10;;;4.10;;
70829;SDS011;58451;51.550;7.208;2023-08-06T04:05:00;7.80;;;3.70;;
70829;SDS011;58451;51.550;7.208;2023-08-06T04:06:32;9.10;;;4.10;;
70829;SDS011;58451;51.550;7.208;2023-08-06T04:08:04;7.70;;;4.10;;
70829;SDS011;58451;51.550;7.208;2023-08-06T04:09:54;8.90;;;4.10;;
70829;SDS011;58451;51.550;7.208;2023-08-06T04:11:30;9.10;;;3.80;;
70829;SDS011;58451;51.550;7.208;2023-08-06T04:13:02;8.60;;;3.80;;
70829;SDS011;58451;51.550;7.208;2023-08-06T04:14:34;10.30;;;3.80;;
70829;SDS011;58451;51.550;7.208;2023-08-06T04:16:06;9.90;;;3.90;;
70829;SDS011;58451;51.550;7.208;2023-08-06T04:17:37;11.70;;;4.60;;
70829;SDS011;58451;51.550;7.208;2023-08-06T04:19:09;8.90;;;3.90;;
70829;SDS011;58451;51.550;7.208;2023-08-06T04:20:47;8.50;;;4.20;;
70829;SDS011;58451;51.550;7.208;2023-08-06T04:22:21;8.60;;;3.80;;
70829;SDS011;58451;51.550;7.208;2023-08-06T04:23:53;8.30;;;3.70;;
70829;SDS011;58451;51.550;7.208;2023-08-06T04:25:25;8.60;;;3.70;;
70829;SDS011;58451;51.550;7.208;2023-08-06T04:26:57;8.30;;;3.80;;
70829;SDS011;58451;51.550;7.208;2023-08-06T04:28:30;8.50;;;4.00;;
70829;SDS011;58451;51.550;7.208;2023-08-06T04:30:02;9.40;;;4.20;;
70829;SDS011;58451;51.550;7.208;2023-08-06T04:31:34;10.00;;;4.20;;
70829;SDS011;58451;51.550;7.208;2023-08-06T04:33:06;13.90;;;3.90;;
70829;SDS011;58451;51.550;7.208;2023-08-06T04:34:38;8.60;;;3.90;;
70829;SDS011;58451;51.550;7.208;2023-08-06T04:36:11;8.70;;;3.60;;
70829;SDS011;58451;51.550;7.208;2023-08-06T04:37:43;8.70;;;4.40;;
70829;SDS011;58451;51.550;7.208;2023-08-06T04:39:15;9.80;;;4.60;;
70829;SDS011;58451;51.550;7.208;2023-08-06T04:40:47;12.40;;;5.10;;
70829;SDS011;58451;51.550;7.208;2023-08-06T04:42:19;10.30;;;4.60;;
70829;SDS011;58451;51.550;7.208;2023-08-06T04:43:51;9.20;;;4.30;;
70829;SDS011;58451;51.550;7.208;2023-08-06T04:45:22;11.10;;;4.30;;
70829;SDS011;58451;51.550;7.208;2023-08-06T04:46:56;8.70;;;4.40;;
70829;SDS011;58451;51.550;7.208;2023-08-06T04:48:27;8.30;;;4.20;;
70829;SDS011;58451;51.550;7.208;2023-08-06T04:49:59;9.10;;;4.50;;
70829;SDS011;58451;51.550;7.208;2023-08-06T04:51:31;11.40;;;4.50;;
70829;SDS011;58451;51.550;7.208;2023-08-06T04:53:03;11.90;;;4.20;;
70829;SDS011;58451;51.550;7.208;2023-08-06T04:54:34;7.70;;;3.90;;
70829;SDS011;58451;51.550;7.208;2023-08-06T04:56:06;10.70;;;4.40;;
70829;SDS011;58451;51.550;7.208;2023-08-06T04:57:38;8.40;;;3.80;;
70829;SDS011;58451;51.550;7.208;2023-08-06T04:59:10;8.60;;;4.00;;
70829;SDS011;58451;51.550;7.208;2023-08-06T05:00:42;9.30;;;4.20;;
70829;SDS011;58451;51.550;7.208;2023-08-06T05:02:13;8.30;;;4.10;;
70829;SDS011;58451;51.550;7.208;2023-08-06T05:03:47;9.20;;;4.10;;
70829;SDS011;58451;51.550;7.208;2023-08-06T05:05:19;9.50;;;4.10;;
70829;SDS011;58451;51.550;7.208;2023-08-06T05:06:51;7.60;;;3.50;;
70829;SDS011;58451;51.550;7.208;2023-08-06T05:08:23;8.70;;;3.90;;
70829;SDS011;58451;51.550;7.208;2023-08-06T05:09:55;8.80;;;4.00;;
70829;SDS011;58451;51.550;7.208;2023-08-06T05:11:26;7.40;;;3.50;;
70829;SDS011;58451;51.550;7.208;2023-08-06T05:12:58;7.30;;;3.50;;
70829;SDS011;58451;51.550;7.208;2023-08-06T05:14:30;9.10;;;3.50;;
70829;SDS011;58451;51.550;7.208;2023-08-06T05:16:02;8.00;;;3.50;;
70829;SDS011;58451;51.550;7.208;2023-08-06T05:17:34;12.10;;;4.00;;
70829;SDS011;58451;51.550;7.208;2023-08-06T05:19:06;9.10;;;4.00;;
70829;SDS011;58451;51.550;7.208;2023-08-06T05:20:39;7.10;;;3.50;;
70829;SDS011;58451;51.550;7.208;2023-08-06T05:22:12;8.00;;;3.40;;
70829;SDS011;58451;51.550;7.208;2023-08-06T05:23:44;8.10;;;3.50;;
70829;SDS011;58451;51.550;7.208;2023-08-06T05:25:16;9.60;;;3.50;;
70829;SDS011;58451;51.550;7.208;2023-08-06T05:26:47;7.20;;;3.10;;
70829;SDS011;58451;51.550;7.208;2023-08-06T05:28:19;8.40;;;3.40;;
70829;SDS011;58451;51.550;7.208;2023-08-06T05:29:55;6.40;;;3.30;;
70829;SDS011;58451;51.550;7.208;2023-08-06T05:31:30;6.10;;;3.10;;
70829;SDS011;58451;51.550;7.208;2023-08-06T05:33:02;6.30;;;3.00;;
70829;SDS011;58451;51.550;7.208;2023-08-06T05:34:34;8.80;;;3.10;;
70829;SDS011;58451;51.550;7.208;2023-08-06T05:36:06;6.10;;;2.80;;
70829;SDS011;58451;51.550;7.208;2023-08-06T05:37:37;7.40;;;2.90;;
70829;SDS011;58451;51.550;7.208;2023-08-06T05:39:09;6.30;;;3.10;;
70829;SDS011;58451;51.550;7.208;2023-08-06T05:40:41;6.80;;;3.00;;
70829;SDS011;58451;51.550;7.208;2023-08-06T05:42:13;6.60;;;3.00;;
70829;SDS011;58451;51.550;7.208;2023-08-06T05:43:45;8.00;;;2.90;;
70829;SDS011;58451;51.550;7.208;2023-08-06T05:45:17;7.40;;;2.90;;
70829;SDS011;58451;51.550;7.208;2023-08-06T05:46:49;6.00;;;2.90;;
70829;SDS011;58451;51.550;7.208;2023-08-06T05:48:21;6.80;;;2.50;;
70829;SDS011;58451;51.550;7.208;2023-08-06T05:49:56;6.90;;;2.90;;
70829;SDS011;58451;51.550;7.208;2023-08-06T05:51:27;6.60;;;2.80;;
70829;SDS011;58451;51.550;7.208;2023-08-06T05:53:00;7.30;;;2.80;;
70829;SDS011;58451;51.550;7.208;2023-08-06T05:54:32;6.70;;;2.50;;
70829;SDS011;58451;51.550;7.208;2023-08-06T05:56:04;5.50;;;2.60;;
70829;SDS011;58451;51.550;7.208;2023-08-06T05:57:36;6.30;;;2.80;;
70829;SDS011;58451;51.550;7.208;2023-08-06T05:59:08;6.30;;;2.40;;
70829;SDS011;58451;51.550;7.208;2023-08-06T06:00:39;6.30;;;2.80;;
70829;SDS011;58451;51.550;7.208;2023-08-06T06:02:11;6.30;;;2.70;;
70829;SDS011;58451;51.550;7.208;2023-08-06T06:03:43;5.60;;;2.80;;
70829;SDS011;58451;51.550;7.208;2023-08-06T06:05:15;5.60;;;2.80;;
70829;SDS011;58451;51.550;7.208;2023-08-06T06:06:47;7.20;;;2.20;;
70829;SDS011;58451;51.550;7.208;2023-08-06T06:08:19;7.00;;;2.40;;
70829;SDS011;58451;51.550;7.208;2023-08-06T06:09:51;5.20;;;2.70;;
70829;SDS011;58451;51.550;7.208;2023-08-06T06:11:22;6.80;;;2.50;;
70829;SDS011;58451;51.550;7.208;2023-08-06T06:12:54;6.60;;;2.50;;
70829;SDS011;58451;51.550;7.208;2023-08-06T06:14:26;6.30;;;2.40;;
70829;SDS011;58451;51.550;7.208;2023-08-06T06:15:58;5.90;;;2.30;;
70829;SDS011;58451;51.550;7.208;2023-08-06T06:17:30;6.50;;;2.50;;
70829;SDS011;58451;51.550;7.208;2023-08-06T06:19:02;5.60;;;2.30;;
70829;SDS011;58451;51.550;7.208;2023-08-06T06:20:33;5.80;;;2.60;;
70829;SDS011;58451;51.550;7.208;2023-08-06T06:22:05;5.40;;;2.10;;
70829;SDS011;58451;51.550;7.208;2023-08-06T06:23:37;5.90;;;2.50;;
70829;SDS011;58451;51.550;7.208;2023-08-06T06:25:09;8.20;;;2.40;;
70829;SDS011;58451;51.550;7.208;2023-08-06T06:26:41;5.30;;;2.40;;
70829;SDS011;58451;51.550;7.208;2023-08-06T06:28:13;5.20;;;2.00;;
70829;SDS011;58451;51.550;7.208;2023-08-06T06:29:45;6.10;;;2.20;;
70829;SDS011;58451;51.550;7.208;2023-08-06T06:31:17;5.90;;;2.10;;
70829;SDS011;58451;51.550;7.208;2023-08-06T06:32:49;5.80;;;2.10;;
70829;SDS011;58451;51.550;7.208;2023-08-06T06:34:21;4.70;;;2.00;;
70829;SDS011;58451;51.550;7.208;2023-08-06T06:35:53;5.00;;;2.20;;
70829;SDS011;58451;51.550;7.208;2023-08-06T06:37:25;3.70;;;1.80;;
70829;SDS011;58451;51.550;7.208;2023-08-06T06:38:57;6.20;;;1.80;;
70829;SDS011;58451;51.550;7.208;2023-08-06T06:40:28;4.50;;;1.80;;
70829;SDS011;58451;51.550;7.208;2023-08-06T06:42:00;5.10;;;1.90;;
70829;SDS011;58451;51.550;7.208;2023-08-06T06:43:36;5.60;;;1.90;;
70829;SDS011;58451;51.550;7.208;2023-08-06T06:45:09;5.80;;;2.00;;
70829;SDS011;58451;51.550;7.208;2023-08-06T06:46:41;5.20;;;2.00;;
70829;SDS011;58451;51.550;7.208;2023-08-06T06:48:13;4.70;;;2.00;;
70829;SDS011;58451;51.550;7.208;2023-08-06T06:49:44;3.40;;;1.60;;
70829;SDS011;58451;51.550;7.208;2023-08-06T06:51:16;4.10;;;2.00;;
70829;SDS011;58451;51.550;7.208;2023-08-06T06:52:48;6.40;;;2.10;;
70829;SDS011;58451;51.550;7.208;2023-08-06T06:54:20;4.30;;;1.70;;
70829;SDS011;58451;51.550;7.208;2023-08-06T06:55:51;3.60;;;2.00;;
70829;SDS011;58451;51.550;7.208;2023-08-06T06:57:24;4.90;;;1.90;;
70829;SDS011;58451;51.550;7.208;2023-08-06T06:58:55;5.90;;;1.60;;
70829;SDS011;58451;51.550;7.208;2023-08-06T07:00:27;5.30;;;1.80;;
70829;SDS011;58451;51.550;7.208;2023-08-06T07:01:59;3.70;;;1.70;;
70829;SDS011;58451;51.550;7.208;2023-08-06T07:03:31;6.90;;;1.80;;
70829;SDS011;58451;51.550;7.208;2023-08-06T07:05:03;5.50;;;1.50;;
70829;SDS011;58451;51.550;7.208;2023-08-06T07:06:35;6.00;;;1.70;;
70829;SDS011;58451;51.550;7.208;2023-08-06T07:08:07;4.20;;;1.70;;
70829;SDS011;58451;51.550;7.208;2023-08-06T07:09:39;4.50;;;1.70;;
70829;SDS011;58451;51.550;7.208;2023-08-06T07:11:11;4.50;;;1.80;;
70829;SDS011;58451;51.550;7.208;2023-08-06T07:12:43;5.50;;;1.80;;
70829;SDS011;58451;51.550;7.208;2023-08-06T07:14:15;4.30;;;1.70;;
70829;SDS011;58451;51.550;7.208;2023-08-06T07:15:47;4.30;;;1.60;;
70829;SDS011;58451;51.550;7.208;2023-08-06T07:17:19;5.50;;;1.60;;
70829;SDS011;58451;51.550;7.208;2023-08-06T07:18:51;3.90;;;1.70;;
70829;SDS011;58451;51.550;7.208;2023-08-06T07:20:24;4.70;;;1.80;;
70829;SDS011;58451;51.550;7.208;2023-08-06T07:21:56;5.50;;;1.90;;
70829;SDS011;58451;51.550;7.208;2023-08-06T07:23:28;4.00;;;1.50;;
70829;SDS011;58451;51.550;7.208;2023-08-06T07:25:00;5.20;;;2.10;;
70829;SDS011;58451;51.550;7.208;2023-08-06T07:26:32;3.90;;;1.70;;
70829;SDS011;58451;51.550;7.208;2023-08-06T07:28:04;4.00;;;1.70;;
70829;SDS011;58451;51.550;7.208;2023-08-06T07:29:36;5.70;;;1.60;;
70829;SDS011;58451;51.550;7.208;2023-08-06T07:31:08;5.70;;;2.20;;
70829;SDS011;58451;51.550;7.208;2023-08-06T07:32:40;6.00;;;1.90;;
70829;SDS011;58451;51.550;7.208;2023-08-06T07:34:11;3.90;;;1.60;;
70829;SDS011;58451;51.550;7.208;2023-08-06T07:35:43;4.70;;;2.00;;
70829;SDS011;58451;51.550;7.208;2023-08-06T07:37:15;4.70;;;1.60;;
70829;SDS011;58451;51.550;7.208;2023-08-06T07:38:48;4.70;;;1.80;;
70829;SDS011;58451;51.550;7.208;2023-08-06T07:40:23;4.30;;;1.50;;
70829;SDS011;58451;51.550;7.208;2023-08-06T07:41:55;3.70;;;1.40;;
70829;SDS011;58451;51.550;7.208;2023-08-06T07:43:27;3.60;;;1.70;;
70829;SDS011;58451;51.550;7.208;2023-08-06T07:44:58;5.00;;;1.90;;
70829;SDS011;58451;51.550;7.208;2023-08-06T07:46:31;5.20;;;1.70;;
70829;SDS011;58451;51.550;7.208;2023-08-06T07:48:03;4.40;;;1.70;;
70829;SDS011;58451;51.550;7.208;2023-08-06T07:49:36;4.70;;;1.80;;
70829;SDS011;58451;51.550;7.208;2023-08-06T07:51:08;5.10;;;1.90;;
70829;SDS011;58451;51.550;7.208;2023-08-06T07:52:40;6.00;;;2.00;;
70829;SDS011;58451;51.550;7.208;2023-08-06T07:54:11;3.60;;;1.70;;
70829;SDS011;58451;51.550;7.208;2023-08-06T07:55:48;4.00;;;1.40;;
70829;SDS011;58451;51.550;7.208;2023-08-06T07:57:22;3.80;;;1.70;;
70829;SDS011;58451;51.550;7.208;2023-08-06T07:58:54;3.60;;;1.50;;
70829;SDS011;58451;51.550;7.208;2023-08-06T08:00:26;4.60;;;1.80;;
70829;SDS011;58451;51.550;7.208;2023-08-06T08:01:58;4.70;;;1.50;;
70829;SDS011;58451;51.550;7.208;2023-08-06T08:03:30;4.60;;;1.80;;
70829;SDS011;58451;51.550;7.208;2023-08-06T08:05:02;4.90;;;1.80;;
70829;SDS011;58451;51.550;7.208;2023-08-06T08:06:34;2.90;;;1.40;;
70829;SDS011;58451;51.550;7.208;2023-08-06T08:08:06;4.00;;;1.70;;
70829;SDS011;58451;51.550;7.208;2023-08-06T08:09:39;4.60;;;1.50;;
70829;SDS011;58451;51.550;7.208;2023-08-06T08:11:10;4.70;;;1.50;;
70829;SDS011;58451;51.550;7.208;2023-08-06T08:12:42;4.80;;;1.80;;
70829;SDS011;58451;51.550;7.208;2023-08-06T08:14:14;5.10;;;2.00;;
70829;SDS011;58451;51.550;7.208;2023-08-06T08:15:46;5.30;;;1.60;;
70829;SDS011;58451;51.550;7.208;2023-08-06T08:17:18;4.70;;;1.90;;
70829;SDS011;58451;51.550;7.208;2023-08-06T08:18:50;3.40;;;1.50;;
70829;SDS011;58451;51.550;7.208;2023-08-06T08:20:26;5.10;;;1.70;;
70829;SDS011;58451;51.550;7.208;2023-08-06T08:22:03;4.40;;;2.00;;
70829;SDS011;58451;51.550;7.208;2023-08-06T08:23:35;5.00;;;1.80;;
70829;SDS011;58451;51.550;7.208;2023-08-06T08:25:16;6.10;;;2.10;;
70829;SDS011;58451;51.550;7.208;2023-08-06T08:27:05;4.40;;;1.90;;
70829;SDS011;58451;51.550;7.208;2023-08-06T08:28:40;4.40;;;1.70;;
70829;SDS011;58451;51.550;7.208;2023-08-06T08:30:12;6.70;;;1.80;;
70829;SDS011;58451;51.550;7.208;2023-08-06T08:31:45;4.30;;;2.00;;
70829;SDS011;58451;51.550;7.208;2023-08-06T08:33:30;5.10;;;2.00;;
70829;SDS011;58451;51.550;7.208;2023-08-06T08:35:02;6.10;;;2.20;;
70829;SDS011;58451;51.550;7.208;2023-08-06T08:36:34;4.50;;;2.00;;
70829;SDS011;58451;51.550;7.208;2023-08-06T08:38:06;4.70;;;2.00;;
70829;SDS011;58451;51.550;7.208;2023-08-06T08:39:38;5.30;;;2.20;;
70829;SDS011;58451;51.550;7.208;2023-08-06T08:41:10;7.20;;;2.20;;
70829;SDS011;58451;51.550;7.208;2023-08-06T08:42:42;5.60;;;2.00;;
70829;SDS011;58451;51.550;7.208;2023-08-06T08:44:16;5.40;;;2.10;;
70829;SDS011;58451;51.550;7.208;2023-08-06T08:45:53;6.20;;;2.20;;
70829;SDS011;58451;51.550;7.208;2023-08-06T08:47:32;6.10;;;2.00;;
70829;SDS011;58451;51.550;7.208;2023-08-06T08:49:04;4.00;;;1.90;;
70829;SDS011;58451;51.550;7.208;2023-08-06T08:50:36;4.80;;;1.90;;
70829;SDS011;58451;51.550;7.208;2023-08-06T08:52:10;3.30;;;1.60;;
70829;SDS011;58451;51.550;7.208;2023-08-06T08:53:45;4.90;;;2.00;;
70829;SDS011;58451;51.550;7.208;2023-08-06T08:55:21;5.60;;;2.30;;
70829;SDS011;58451;51.550;7.208;2023-08-06T08:56:54;5.50;;;2.20;;
70829;SDS011;58451;51.550;7.208;2023-08-06T08:58:26;3.80;;;1.70;;
70829;SDS011;58451;51.550;7.208;2023-08-06T08:59:58;6.70;;;2.10;;
70829;SDS011;58451;51.550;7.208;2023-08-06T09:01:30;5.70;;;2.40;;
70829;SDS011;58451;51.550;7.208;2023-08-06T09:03:05;4.80;;;2.40;;
70829;SDS011;58451;51.550;7.208;2023-08-06T09:04:39;5.10;;;2.60;;
70829;SDS011;58451;51.550;7.208;2023-08-06T09:06:12;7.10;;;2.80;;
70829;SDS011;58451;51.550;7.208;2023-08-06T09:07:48;6.90;;;3.20;;
70829;SDS011;58451;51.550;7.208;2023-08-06T09:09:30;7.70;;;3.20;;
70829;SDS011;58451;51.550;7.208;2023-08-06T09:11:09;8.10;;;3.20;;
70829;SDS011;58451;51.550;7.208;2023-08-06T09:12:45;7.60;;;3.20;;
70829;SDS011;58451;51.550;7.208;2023-08-06T09:14:18;12.20;;;3.70;;
70829;SDS011;58451;51.550;7.208;2023-08-06T09:15:50;9.30;;;3.40;;
70829;SDS011;58451;51.550;7.208;2023-08-06T09:17:22;10.40;;;3.80;;
70829;SDS011;58451;51.550;7.208;2023-08-06T09:18:54;11.20;;;4.10;;
70829;SDS011;58451;51.550;7.208;2023-08-06T09:20:26;7.60;;;3.10;;
70829;SDS011;58451;51.550;7.208;2023-08-06T09:21:58;6.70;;;3.10;;
70829;SDS011;58451;51.550;7.208;2023-08-06T09:23:31;6.30;;;3.10;;
70829;SDS011;58451;51.550;7.208;2023-08-06T09:25:06;6.20;;;2.70;;
70829;SDS011;58451;51.550;7.208;2023-08-06T09:26:44;6.30;;;3.00;;
70829;SDS011;58451;51.550;7.208;2023-08-06T09:28:16;9.10;;;3.20;;
70829;SDS011;58451;51.550;7.208;2023-08-06T09:29:49;6.10;;;2.70;;
70829;SDS011;58451;51.550;7.208;2023-08-06T09:31:20;7.00;;;3.00;;
70829;SDS011;58451;51.550;7.208;2023-08-06T09:32:52;5.40;;;2.60;;
70829;SDS011;58451;51.550;7.208;2023-08-06T09:34:24;7.60;;;3.20;;
70829;SDS011;58451;51.550;7.208;2023-08-06T09:35:56;5.50;;;2.60;;